createdAt,value
2022-11-07T00:03:20.688Z,7.00
2022-11-07T00:08:31.693Z,7.00
2022-11-07T00:13:34.160Z,7.00
2022-11-07T00:18:36.389Z,7.00
2022-11-07T00:23:41.254Z,7.00
2022-11-07T00:28:43.804Z,7.10
2022-11-07T00:33:45.991Z,7.10
2022-11-07T00:38:47.818Z,7.10
2022-11-07T00:43:49.747Z,7.10
2022-11-07T00:48:51.723Z,7.10
2022-11-07T00:53:53.825Z,7.20
2022-11-07T00:58:57.277Z,7.20
2022-11-07T01:04:18.162Z,7.20
2022-11-07T01:09:21.638Z,7.20
2022-11-07T01:14:23.484Z,7.20
2022-11-07T01:19:25.239Z,7.20
2022-11-07T01:24:27.000Z,7.20
2022-11-07T01:29:28.827Z,7.20
2022-11-07T01:34:30.594Z,7.20
2022-11-07T01:39:32.420Z,7.20
2022-11-07T01:44:40.071Z,7.10
2022-11-07T01:49:43.536Z,7.10
2022-11-07T01:55:00.182Z,7.20
2022-11-07T02:00:05.341Z,7.30
2022-11-07T02:05:08.852Z,7.30
2022-11-07T02:10:11.884Z,7.30
2022-11-07T02:15:13.688Z,7.30
2022-11-07T02:20:16.033Z,7.30
2022-11-07T02:25:19.698Z,7.30
2022-11-07T02:30:25.993Z,7.40
2022-11-07T02:35:44.914Z,7.40
2022-11-07T02:40:51.511Z,7.40
2022-11-07T02:45:55.755Z,7.30
2022-11-07T02:50:57.832Z,7.40
2022-11-07T02:55:59.596Z,7.40
2022-11-07T03:01:03.014Z,7.40
2022-11-07T03:06:06.244Z,7.40
2022-11-07T03:11:08.135Z,7.40
2022-11-07T03:16:11.603Z,7.40
2022-11-07T03:21:13.925Z,7.40
2022-11-07T03:26:15.907Z,7.30
2022-11-07T03:31:17.669Z,7.40
2022-11-07T03:36:19.453Z,7.40
2022-11-07T03:41:21.301Z,7.40
2022-11-07T03:46:23.059Z,7.40
2022-11-07T03:51:24.807Z,7.40
2022-11-07T03:56:26.565Z,7.50
2022-11-07T04:01:28.429Z,7.40
2022-11-07T04:06:32.884Z,7.50
2022-11-07T04:11:53.394Z,7.50
2022-11-07T04:17:13.584Z,7.50
2022-11-07T04:22:16.026Z,7.50
2022-11-07T04:27:37.811Z,7.50
2022-11-07T04:32:39.533Z,7.50
2022-11-07T04:37:41.929Z,7.50
2022-11-07T04:42:44.729Z,7.50
2022-11-07T04:47:46.898Z,7.50
2022-11-07T04:52:48.843Z,7.60
2022-11-07T04:57:51.309Z,7.60
2022-11-07T05:02:53.189Z,7.50
2022-11-07T05:07:55.112Z,7.50
2022-11-07T05:12:56.907Z,7.50
2022-11-07T05:17:58.659Z,7.50
2022-11-07T05:23:13.549Z,7.50
2022-11-07T05:28:23.773Z,7.50
2022-11-07T05:33:30.231Z,7.40
2022-11-07T05:38:31.976Z,7.30
2022-11-07T05:43:33.927Z,7.30
2022-11-07T05:48:36.381Z,7.20
2022-11-07T05:53:38.269Z,7.20
2022-11-07T05:58:40.057Z,7.20
2022-11-07T06:03:41.812Z,7.20
2022-11-07T06:08:43.533Z,7.20
2022-11-07T06:13:45.340Z,7.20
2022-11-07T06:18:47.083Z,7.20
2022-11-07T06:23:49.009Z,7.20
2022-11-07T06:28:50.767Z,7.10
2022-11-07T06:33:52.749Z,7.10
2022-11-07T06:38:54.491Z,7.10
2022-11-07T06:43:56.289Z,7.20
2022-11-07T06:48:58.079Z,7.10
2022-11-07T06:53:59.815Z,7.00
2022-11-07T06:59:01.750Z,7.00
2022-11-07T07:04:03.585Z,7.10
2022-11-07T07:09:06.958Z,7.20
2022-11-07T07:14:11.806Z,7.20
2022-11-07T07:19:13.745Z,7.20
2022-11-07T07:24:15.539Z,7.40
2022-11-07T07:29:17.240Z,7.70
2022-11-07T07:34:18.959Z,7.90
2022-11-07T07:39:20.665Z,8.00
2022-11-07T07:44:22.508Z,8.00
2022-11-07T07:49:24.223Z,8.10
2022-11-07T07:54:25.999Z,8.20
2022-11-07T07:59:27.729Z,8.20
2022-11-07T08:04:29.464Z,8.30
2022-11-07T08:09:36.727Z,8.30
2022-11-07T08:14:38.461Z,8.30
2022-11-07T08:19:40.213Z,8.30
2022-11-07T08:24:43.251Z,8.30
2022-11-07T08:29:45.098Z,8.40
2022-11-07T08:34:46.811Z,8.40
2022-11-07T08:39:48.632Z,8.50
2022-11-07T08:44:50.357Z,8.60
2022-11-07T08:49:52.074Z,8.70
2022-11-07T08:54:53.841Z,8.80
2022-11-07T08:59:55.832Z,8.80
2022-11-07T09:04:57.604Z,8.90
2022-11-07T09:09:59.356Z,9.00
2022-11-07T09:15:01.164Z,9.20
2022-11-07T09:20:02.989Z,9.20
2022-11-07T09:25:05.148Z,9.30
2022-11-07T09:30:07.509Z,9.50
2022-11-07T09:35:09.849Z,9.60
2022-11-07T09:40:22.357Z,9.70
2022-11-07T09:45:24.285Z,9.80
2022-11-07T09:50:35.645Z,9.80
2022-11-07T09:55:41.633Z,9.90
2022-11-07T10:00:43.423Z,9.90
2022-11-07T10:05:50.977Z,10.10
2022-11-07T10:10:59.934Z,10.30
2022-11-07T10:16:17.482Z,10.40
2022-11-07T10:21:40.491Z,10.60
2022-11-07T10:26:45.246Z,10.80
2022-11-07T10:32:10.818Z,10.90
2022-11-07T10:37:12.565Z,11.10
2022-11-07T10:42:22.687Z,11.30
2022-11-07T10:47:26.444Z,11.50
2022-11-07T10:52:29.744Z,11.70
2022-11-07T10:57:35.249Z,11.80
2022-11-07T11:02:50.260Z,11.90
2022-11-07T11:08:07.431Z,12.10
2022-11-07T11:13:32.763Z,12.10
2022-11-07T11:18:36.585Z,12.30
2022-11-07T11:23:44.042Z,12.40
2022-11-07T11:28:50.756Z,12.50
2022-11-07T11:34:02.997Z,12.40
2022-11-07T11:39:16.304Z,12.50
2022-11-07T11:44:24.089Z,12.60
2022-11-07T11:49:43.288Z,12.90
2022-11-07T11:54:45.921Z,13.00
2022-11-07T12:00:06.258Z,13.00
2022-11-07T12:05:48.317Z,13.00
2022-11-07T12:11:05.580Z,13.00
2022-11-07T12:16:32.535Z,13.00
2022-11-07T12:21:48.366Z,12.90
2022-11-07T12:27:31.824Z,12.70
2022-11-07T12:32:52.111Z,12.70
2022-11-07T12:38:27.709Z,12.90
2022-11-07T12:43:41.618Z,13.10
2022-11-07T12:48:55.357Z,13.10
2022-11-07T12:54:03.177Z,13.20
2022-11-07T12:59:29.971Z,13.30
2022-11-07T13:04:41.888Z,13.40
2022-11-07T13:09:57.104Z,13.40
2022-11-07T13:15:00.585Z,13.30
2022-11-07T13:20:22.883Z,13.20
2022-11-07T13:25:32.926Z,13.30
2022-11-07T13:30:40.008Z,13.50
2022-11-07T13:35:54.246Z,13.40
2022-11-07T13:41:04.728Z,13.40
2022-11-07T13:46:10.714Z,13.40
2022-11-07T13:51:36.063Z,13.20
2022-11-07T13:56:43.915Z,13.20
2022-11-07T14:01:45.833Z,13.10
2022-11-07T14:06:50.014Z,13.00
2022-11-07T14:11:53.357Z,12.80
2022-11-07T14:17:00.476Z,12.70
2022-11-07T14:22:02.545Z,12.70
2022-11-07T14:27:13.738Z,12.60
2022-11-07T14:32:16.887Z,12.60
2022-11-07T14:37:21.859Z,12.50
2022-11-07T14:42:24.569Z,12.50
2022-11-07T14:47:32.931Z,12.30
2022-11-07T14:53:01.937Z,12.10
2022-11-07T14:58:05.735Z,12.00
2022-11-07T15:03:21.744Z,11.80
2022-11-07T15:08:35.292Z,11.60
2022-11-07T15:13:37.111Z,11.50
2022-11-07T15:18:42.741Z,11.30
2022-11-07T15:23:44.457Z,11.10
2022-11-07T15:28:51.139Z,11.00
2022-11-07T15:33:53.926Z,10.80
2022-11-07T15:38:56.292Z,10.60
2022-11-07T15:43:58.032Z,10.40
2022-11-07T15:48:59.972Z,10.30
2022-11-07T15:54:01.711Z,10.10
2022-11-07T15:59:03.542Z,10.00
2022-11-07T16:04:05.905Z,9.90
2022-11-07T16:09:17.590Z,9.70
2022-11-07T16:19:42.737Z,9.50
2022-11-07T16:24:44.479Z,9.30
2022-11-07T16:29:46.546Z,9.20
2022-11-07T16:34:48.272Z,9.20
2022-11-07T16:39:49.982Z,9.10
2022-11-07T16:44:51.778Z,9.00
2022-11-07T16:49:56.046Z,8.90
2022-11-07T16:54:58.032Z,8.80
2022-11-07T16:59:59.798Z,8.70
2022-11-07T17:05:01.508Z,8.60
2022-11-07T17:10:03.835Z,8.50
2022-11-07T17:15:06.273Z,8.40
2022-11-07T17:20:34.337Z,8.30
2022-11-07T17:25:42.358Z,8.30
2022-11-07T17:30:44.424Z,8.30
2022-11-07T17:35:46.770Z,8.30
2022-11-07T17:40:48.542Z,8.30
2022-11-07T17:45:50.341Z,8.30
2022-11-07T17:50:52.097Z,8.30
2022-11-07T17:55:53.845Z,8.30
2022-11-07T18:00:55.565Z,8.30
2022-11-07T18:05:57.377Z,8.20
2022-11-07T18:11:02.903Z,8.10
2022-11-07T18:16:15.473Z,8.00
2022-11-07T18:21:18.126Z,8.00
2022-11-07T18:26:25.168Z,7.80
2022-11-07T18:31:27.010Z,7.80
2022-11-07T18:36:30.686Z,7.80
2022-11-07T18:41:32.694Z,7.70
2022-11-07T18:46:34.522Z,7.60
2022-11-07T18:51:36.495Z,7.60
2022-11-07T18:56:39.711Z,7.40
2022-11-07T19:01:42.224Z,7.40
2022-11-07T19:06:59.668Z,7.30
2022-11-07T19:12:02.241Z,7.30
2022-11-07T19:17:05.144Z,7.30
2022-11-07T19:22:07.792Z,7.40
2022-11-07T19:27:10.408Z,7.40
2022-11-07T19:32:13.148Z,7.30
2022-11-07T19:37:15.693Z,7.20
2022-11-07T19:42:18.214Z,7.20
2022-11-07T19:47:21.588Z,7.20
2022-11-07T19:52:24.127Z,7.10
2022-11-07T19:57:27.126Z,7.10
2022-11-07T20:02:35.407Z,7.00
2022-11-07T20:07:40.576Z,7.00
2022-11-07T20:12:43.263Z,7.00
2022-11-07T20:17:45.835Z,7.00
2022-11-07T20:22:48.355Z,7.00
2022-11-07T20:27:50.919Z,7.00
2022-11-07T20:32:53.367Z,7.00
2022-11-07T20:37:55.755Z,7.00
2022-11-07T20:42:58.065Z,7.00
2022-11-07T20:48:00.185Z,7.00
2022-11-07T20:53:02.168Z,6.90
2022-11-07T20:58:04.396Z,6.90
2022-11-07T21:03:07.137Z,6.80
2022-11-07T21:08:09.126Z,6.80
2022-11-07T21:13:14.070Z,6.70
2022-11-07T21:18:16.393Z,6.60
2022-11-07T21:23:18.493Z,6.70
2022-11-07T21:28:21.993Z,6.70
2022-11-07T21:33:23.860Z,6.70
2022-11-07T21:38:26.217Z,6.70
2022-11-07T21:43:27.977Z,6.60
2022-11-07T21:48:29.705Z,6.60
2022-11-07T21:53:34.131Z,6.60
2022-11-07T21:58:39.260Z,6.50
2022-11-07T22:09:03.185Z,6.40
2022-11-07T22:14:05.434Z,6.40
2022-11-07T22:19:12.027Z,6.40
2022-11-07T22:24:14.237Z,6.40
2022-11-07T22:29:16.027Z,6.40
2022-11-07T22:34:17.862Z,6.40
2022-11-07T22:39:19.619Z,6.30
2022-11-07T22:44:21.383Z,6.30
2022-11-07T22:49:23.324Z,6.30
2022-11-07T22:54:25.108Z,6.30
2022-11-07T22:59:27.002Z,6.30
2022-11-07T23:04:32.917Z,6.30
2022-11-07T23:09:34.906Z,6.30
2022-11-07T23:14:36.712Z,6.30
2022-11-07T23:19:38.473Z,6.20
2022-11-07T23:24:40.251Z,6.20
2022-11-07T23:29:42.720Z,6.10
2022-11-07T23:34:44.448Z,6.10
2022-11-07T23:39:46.662Z,6.10
2022-11-07T23:45:07.171Z,6.10
2022-11-07T23:50:28.627Z,6.10
2022-11-07T23:55:42.573Z,5.90
